sensor_id;sensor_type;location;lat;lon;timestamp;pressure;altitude;pressure_sealevel;temperature;humidity
51229;BME280;37304;52.216;6.874;2023-03-13T00:01:43;99997.78;;;8.51;100.00
51229;BME280;37304;52.216;6.874;2023-03-13T00:06:47;99985.63;;;8.55;100.00
51229;BME280;37304;52.216;6.874;2023-03-13T00:11:47;99975.44;;;8.45;100.00
51229;BME280;37304;52.216;6.874;2023-03-13T00:16:47;99959.22;;;8.37;100.00
51229;BME280;37304;52.216;6.874;2023-03-13T00:21:48;99957.69;;;8.27;100.00
51229;BME280;37304;52.216;6.874;2023-03-13T00:26:48;99950.13;;;8.18;100.00
51229;BME280;37304;52.216;6.874;2023-03-13T00:31:48;99948.56;;;8.10;100.00
51229;BME280;37304;52.216;6.874;2023-03-13T00:36:48;99930.56;;;8.06;100.00
51229;BME280;37304;52.216;6.874;2023-03-13T00:41:49;99923.69;;;8.03;100.00
51229;BME280;37304;52.216;6.874;2023-03-13T00:46:49;99916.13;;;7.95;100.00
51229;BME280;37304;52.216;6.874;2023-03-13T00:51:50;99905.78;;;7.94;100.00
51229;BME280;37304;52.216;6.874;2023-03-13T00:56:50;99895.44;;;7.92;100.00
51229;BME280;37304;52.216;6.874;2023-03-13T01:01:50;99888.63;;;7.90;100.00
51229;BME280;37304;52.216;6.874;2023-03-13T01:06:50;99883.44;;;7.90;100.00
51229;BME280;37304;52.216;6.874;2023-03-13T01:11:51;99870.53;;;7.88;100.00
51229;BME280;37304;52.216;6.874;2023-03-13T01:16:51;99854.94;;;7.91;100.00
51229;BME280;37304;52.216;6.874;2023-03-13T01:21:51;99842.88;;;7.92;100.00
51229;BME280;37304;52.216;6.874;2023-03-13T01:26:52;99822.25;;;7.89;100.00
51229;BME280;37304;52.216;6.874;2023-03-13T01:31:52;99817.09;;;7.87;100.00
51229;BME280;37304;52.216;6.874;2023-03-13T01:36:52;99799.09;;;7.82;100.00
51229;BME280;37304;52.216;6.874;2023-03-13T01:41:52;99798.44;;;7.74;100.00
51229;BME280;37304;52.216;6.874;2023-03-13T01:46:53;99784.75;;;7.69;100.00
51229;BME280;37304;52.216;6.874;2023-03-13T01:52:03;99761.53;;;7.66;100.00
51229;BME280;37304;52.216;6.874;2023-03-13T01:57:07;99740.97;;;7.60;100.00
51229;BME280;37304;52.216;6.874;2023-03-13T02:02:10;99733.19;;;7.60;100.00
51229;BME280;37304;52.216;6.874;2023-03-13T02:07:15;99719.38;;;7.61;100.00
51229;BME280;37304;52.216;6.874;2023-03-13T02:12:33;99706.44;;;7.62;100.00
51229;BME280;37304;52.216;6.874;2023-03-13T02:17:35;99695.13;;;7.66;100.00
51229;BME280;37304;52.216;6.874;2023-03-13T02:23:00;99687.31;;;7.69;100.00
51229;BME280;37304;52.216;6.874;2023-03-13T02:28:06;99662.16;;;7.76;100.00
51229;BME280;37304;52.216;6.874;2023-03-13T02:33:08;99663.88;;;7.77;100.00
51229;BME280;37304;52.216;6.874;2023-03-13T02:38:14;99647.22;;;7.87;100.00
51229;BME280;37304;52.216;6.874;2023-03-13T02:43:20;99634.94;;;7.96;100.00
51229;BME280;37304;52.216;6.874;2023-03-13T02:48:41;99624.34;;;8.05;100.00
51229;BME280;37304;52.216;6.874;2023-03-13T02:53:42;99610.38;;;8.12;100.00
51229;BME280;37304;52.216;6.874;2023-03-13T02:58:42;99591.16;;;8.21;100.00
51229;BME280;37304;52.216;6.874;2023-03-13T03:03:43;99572.78;;;8.30;100.00
51229;BME280;37304;52.216;6.874;2023-03-13T03:08:43;99570.91;;;8.36;100.00
51229;BME280;37304;52.216;6.874;2023-03-13T03:13:44;99551.00;;;8.39;100.00
51229;BME280;37304;52.216;6.874;2023-03-13T03:18:44;99542.34;;;8.39;100.00
51229;BME280;37304;52.216;6.874;2023-03-13T03:23:44;99516.38;;;8.42;100.00
51229;BME280;37304;52.216;6.874;2023-03-13T03:28:45;99541.19;;;8.51;100.00
51229;BME280;37304;52.216;6.874;2023-03-13T03:33:46;99527.97;;;8.60;100.00
51229;BME280;37304;52.216;6.874;2023-03-13T03:38:47;99524.50;;;8.61;100.00
51229;BME280;37304;52.216;6.874;2023-03-13T03:43:47;99525.09;;;8.69;100.00
51229;BME280;37304;52.216;6.874;2023-03-13T03:48:48;99524.91;;;8.76;100.00
51229;BME280;37304;52.216;6.874;2023-03-13T03:53:48;99513.56;;;8.80;100.00
51229;BME280;37304;52.216;6.874;2023-03-13T03:58:48;99508.28;;;8.83;100.00
51229;BME280;37304;52.216;6.874;2023-03-13T04:03:49;99509.78;;;8.90;100.00
51229;BME280;37304;52.216;6.874;2023-03-13T04:08:49;99497.63;;;8.92;100.00
51229;BME280;37304;52.216;6.874;2023-03-13T04:13:49;99503.44;;;9.00;100.00
51229;BME280;37304;52.216;6.874;2023-03-13T04:18:50;99490.41;;;9.03;100.00
51229;BME280;37304;52.216;6.874;2023-03-13T04:23:50;99490.19;;;9.10;100.00
51229;BME280;37304;52.216;6.874;2023-03-13T04:28:50;99478.84;;;9.12;100.00
51229;BME280;37304;52.216;6.874;2023-03-13T04:33:50;99480.31;;;9.21;100.00
51229;BME280;37304;52.216;6.874;2023-03-13T04:38:51;99474.97;;;9.26;100.00
51229;BME280;37304;52.216;6.874;2023-03-13T04:43:51;99456.78;;;9.27;100.00
51229;BME280;37304;52.216;6.874;2023-03-13T04:48:51;99450.38;;;9.38;100.00
51229;BME280;37304;52.216;6.874;2023-03-13T04:53:52;99442.50;;;9.41;100.00
51229;BME280;37304;52.216;6.874;2023-03-13T04:58:52;99430.06;;;9.51;100.00
51229;BME280;37304;52.216;6.874;2023-03-13T05:03:53;99433.28;;;9.57;100.00
51229;BME280;37304;52.216;6.874;2023-03-13T05:08:53;99431.53;;;9.58;100.00
51229;BME280;37304;52.216;6.874;2023-03-13T05:13:53;99431.47;;;9.59;100.00
51229;BME280;37304;52.216;6.874;2023-03-13T05:18:56;99420.81;;;9.67;100.00
51229;BME280;37304;52.216;6.874;2023-03-13T05:23:56;99403.41;;;9.71;100.00
51229;BME280;37304;52.216;6.874;2023-03-13T05:28:57;99421.25;;;9.80;100.00
51229;BME280;37304;52.216;6.874;2023-03-13T05:33:57;99402.00;;;9.86;100.00
51229;BME280;37304;52.216;6.874;2023-03-13T05:38:57;99391.28;;;9.95;100.00
51229;BME280;37304;52.216;6.874;2023-03-13T05:43:58;99388.50;;;10.00;100.00
51229;BME280;37304;52.216;6.874;2023-03-13T05:48:58;99383.88;;;10.08;100.00
51229;BME280;37304;52.216;6.874;2023-03-13T05:53:58;99377.84;;;10.08;100.00
51229;BME280;37304;52.216;6.874;2023-03-13T05:58:59;99385.41;;;10.14;100.00
51229;BME280;37304;52.216;6.874;2023-03-13T06:03:59;99374.78;;;10.20;100.00
51229;BME280;37304;52.216;6.874;2023-03-13T06:09:00;99378.88;;;10.26;100.00
51229;BME280;37304;52.216;6.874;2023-03-13T06:14:00;99373.16;;;10.40;100.00
51229;BME280;37304;52.216;6.874;2023-03-13T06:19:00;99390.41;;;10.42;100.00
51229;BME280;37304;52.216;6.874;2023-03-13T06:24:01;99383.44;;;10.43;100.00
51229;BME280;37304;52.216;6.874;2023-03-13T06:29:02;99388.38;;;10.49;100.00
51229;BME280;37304;52.216;6.874;2023-03-13T06:34:02;99386.56;;;10.51;100.00
51229;BME280;37304;52.216;6.874;2023-03-13T06:39:03;99380.94;;;10.62;100.00
51229;BME280;37304;52.216;6.874;2023-03-13T06:44:04;99374.06;;;10.61;100.00
51229;BME280;37304;52.216;6.874;2023-03-13T06:49:04;99363.41;;;10.67;100.00
51229;BME280;37304;52.216;6.874;2023-03-13T06:54:05;99371.81;;;10.74;100.00
51229;BME280;37304;52.216;6.874;2023-03-13T06:59:05;99355.97;;;10.80;100.00
51229;BME280;37304;52.216;6.874;2023-03-13T07:04:05;99343.75;;;10.82;100.00
51229;BME280;37304;52.216;6.874;2023-03-13T07:09:06;99323.66;;;10.86;100.00
51229;BME280;37304;52.216;6.874;2023-03-13T07:14:06;99318.41;;;10.87;100.00
51229;BME280;37304;52.216;6.874;2023-03-13T07:19:07;99312.91;;;10.95;100.00
51229;BME280;37304;52.216;6.874;2023-03-13T07:24:07;99314.34;;;11.02;100.00
51229;BME280;37304;52.216;6.874;2023-03-13T07:29:07;99302.03;;;11.06;100.00
51229;BME280;37304;52.216;6.874;2023-03-13T07:34:08;99307.94;;;11.10;100.00
51229;BME280;37304;52.216;6.874;2023-03-13T07:39:08;99301.91;;;11.09;100.00
51229;BME280;37304;52.216;6.874;2023-03-13T07:44:09;99306.56;;;11.21;100.00
51229;BME280;37304;52.216;6.874;2023-03-13T07:49:09;99279.84;;;11.18;100.00
51229;BME280;37304;52.216;6.874;2023-03-13T07:54:09;99303.13;;;11.21;100.00
51229;BME280;37304;52.216;6.874;2023-03-13T07:59:10;99293.31;;;11.28;100.00
51229;BME280;37304;52.216;6.874;2023-03-13T08:04:12;99291.84;;;11.41;100.00
51229;BME280;37304;52.216;6.874;2023-03-13T08:09:13;99287.19;;;11.48;100.00
51229;BME280;37304;52.216;6.874;2023-03-13T08:14:13;99287.13;;;11.49;100.00
51229;BME280;37304;52.216;6.874;2023-03-13T08:19:14;99285.00;;;11.58;100.00
51229;BME280;37304;52.216;6.874;2023-03-13T08:24:14;99280.38;;;11.64;100.00
51229;BME280;37304;52.216;6.874;2023-03-13T08:29:15;99283.66;;;11.68;100.00
51229;BME280;37304;52.216;6.874;2023-03-13T08:34:16;99289.50;;;11.73;100.00
51229;BME280;37304;52.216;6.874;2023-03-13T08:39:18;99300.78;;;11.74;100.00
51229;BME280;37304;52.216;6.874;2023-03-13T08:44:19;99294.66;;;11.75;100.00
51229;BME280;37304;52.216;6.874;2023-03-13T08:49:19;99305.41;;;11.86;100.00
51229;BME280;37304;52.216;6.874;2023-03-13T08:54:20;99301.03;;;11.87;100.00
51229;BME280;37304;52.216;6.874;2023-03-13T08:59:23;99293.72;;;11.95;100.00
51229;BME280;37304;52.216;6.874;2023-03-13T09:04:24;99292.72;;;11.98;100.00
51229;BME280;37304;52.216;6.874;2023-03-13T09:09:27;99284.75;;;12.20;100.00
51229;BME280;37304;52.216;6.874;2023-03-13T09:14:27;99272.81;;;12.33;100.00
51229;BME280;37304;52.216;6.874;2023-03-13T09:19:28;99283.31;;;12.32;100.00
51229;BME280;37304;52.216;6.874;2023-03-13T09:24:28;99267.84;;;12.29;100.00
51229;BME280;37304;52.216;6.874;2023-03-13T09:29:29;99255.03;;;12.42;100.00
51229;BME280;37304;52.216;6.874;2023-03-13T09:34:29;99273.41;;;12.56;100.00
51229;BME280;37304;52.216;6.874;2023-03-13T09:39:31;99261.78;;;12.63;100.00
51229;BME280;37304;52.216;6.874;2023-03-13T09:44:38;99250.03;;;12.72;100.00
51229;BME280;37304;52.216;6.874;2023-03-13T09:49:45;99249.59;;;12.64;100.00
51229;BME280;37304;52.216;6.874;2023-03-13T09:54:58;99244.47;;;12.62;100.00
51229;BME280;37304;52.216;6.874;2023-03-13T10:00:05;99249.44;;;12.67;100.00
51229;BME280;37304;52.216;6.874;2023-03-13T10:05:19;99245.28;;;12.63;100.00
51229;BME280;37304;52.216;6.874;2023-03-13T10:10:33;99259.31;;;12.78;100.00
51229;BME280;37304;52.216;6.874;2023-03-13T10:15:47;99212.88;;;13.18;100.00
51229;BME280;37304;52.216;6.874;2023-03-13T10:20:52;99178.97;;;13.34;100.00
51229;BME280;37304;52.216;6.874;2023-03-13T10:25:56;99209.47;;;13.34;100.00
51229;BME280;37304;52.216;6.874;2023-03-13T10:31:13;99198.53;;;13.43;100.00
51229;BME280;37304;52.216;6.874;2023-03-13T10:36:18;99187.75;;;13.49;100.00
51229;BME280;37304;52.216;6.874;2023-03-13T10:46:30;99194.56;;;13.68;100.00
51229;BME280;37304;52.216;6.874;2023-03-13T10:51:39;99173.91;;;13.79;100.00
51229;BME280;37304;52.216;6.874;2023-03-13T10:56:43;99178.28;;;13.95;100.00
51229;BME280;37304;52.216;6.874;2023-03-13T11:01:44;99159.53;;;14.91;100.00
51229;BME280;37304;52.216;6.874;2023-03-13T11:06:50;99168.13;;;14.64;100.00
51229;BME280;37304;52.216;6.874;2023-03-13T11:12:01;99151.03;;;14.88;100.00
51229;BME280;37304;52.216;6.874;2023-03-13T11:17:18;99144.56;;;15.08;100.00
51229;BME280;37304;52.216;6.874;2023-03-13T11:22:28;99142.22;;;15.18;100.00
51229;BME280;37304;52.216;6.874;2023-03-13T11:32:47;99116.34;;;15.40;100.00
51229;BME280;37304;52.216;6.874;2023-03-13T11:37:51;99130.03;;;15.31;100.00
51229;BME280;37304;52.216;6.874;2023-03-13T11:48:08;99119.59;;;15.71;100.00
51229;BME280;37304;52.216;6.874;2023-03-13T12:04:01;99087.84;;;15.76;100.00
51229;BME280;37304;52.216;6.874;2023-03-13T12:09:18;99057.41;;;15.88;100.00
51229;BME280;37304;52.216;6.874;2023-03-13T12:15:15;99059.09;;;15.89;100.00
51229;BME280;37304;52.216;6.874;2023-03-13T12:19:57;99036.88;;;16.08;100.00
51229;BME280;37304;52.216;6.874;2023-03-13T12:25:22;99031.13;;;17.27;100.00
51229;BME280;37304;52.216;6.874;2023-03-13T12:30:35;99037.56;;;16.99;100.00
51229;BME280;37304;52.216;6.874;2023-03-13T12:35:39;99024.00;;;17.99;100.00
51229;BME280;37304;52.216;6.874;2023-03-13T12:40:50;99031.19;;;16.77;100.00
51229;BME280;37304;52.216;6.874;2023-03-13T13:01:46;98979.22;;;17.89;100.00
51229;BME280;37304;52.216;6.874;2023-03-13T13:06:55;98995.81;;;18.58;100.00
51229;BME280;37304;52.216;6.874;2023-03-13T13:12:17;98993.03;;;19.15;100.00
51229;BME280;37304;52.216;6.874;2023-03-13T13:32:40;98945.88;;;19.55;100.00
51229;BME280;37304;52.216;6.874;2023-03-13T13:37:41;98955.84;;;17.39;100.00
51229;BME280;37304;52.216;6.874;2023-03-13T13:42:57;98936.53;;;17.52;100.00
51229;BME280;37304;52.216;6.874;2023-03-13T13:48:24;98951.50;;;17.15;100.00
51229;BME280;37304;52.216;6.874;2023-03-13T13:53:31;98949.38;;;17.32;100.00
51229;BME280;37304;52.216;6.874;2023-03-13T13:58:35;98933.81;;;17.06;100.00
51229;BME280;37304;52.216;6.874;2023-03-13T14:03:38;98949.72;;;16.67;100.00
51229;BME280;37304;52.216;6.874;2023-03-13T14:08:42;98934.97;;;16.53;100.00
51229;BME280;37304;52.216;6.874;2023-03-13T14:13:44;98933.25;;;16.41;100.00
51229;BME280;37304;52.216;6.874;2023-03-13T14:18:44;98935.09;;;16.27;100.00
51229;BME280;37304;52.216;6.874;2023-03-13T14:23:45;98946.28;;;16.29;100.00
51229;BME280;37304;52.216;6.874;2023-03-13T14:28:57;98929.72;;;16.16;100.00
51229;BME280;37304;52.216;6.874;2023-03-13T14:33:58;98907.56;;;16.33;100.00
51229;BME280;37304;52.216;6.874;2023-03-13T14:38:59;98914.22;;;16.13;100.00
51229;BME280;37304;52.216;6.874;2023-03-13T14:44:05;98910.75;;;16.25;100.00
51229;BME280;37304;52.216;6.874;2023-03-13T14:49:27;98922.34;;;16.34;100.00
51229;BME280;37304;52.216;6.874;2023-03-13T14:54:31;98910.19;;;16.33;100.00
51229;BME280;37304;52.216;6.874;2023-03-13T14:59:32;98898.38;;;16.27;100.00
51229;BME280;37304;52.216;6.874;2023-03-13T15:09:55;98886.47;;;16.10;100.00
51229;BME280;37304;52.216;6.874;2023-03-13T15:14:56;98882.75;;;15.89;100.00
51229;BME280;37304;52.216;6.874;2023-03-13T15:19:58;98854.75;;;15.76;100.00
51229;BME280;37304;52.216;6.874;2023-03-13T15:24:58;98861.72;;;15.64;100.00
51229;BME280;37304;52.216;6.874;2023-03-13T15:29:59;98877.72;;;15.72;100.00
51229;BME280;37304;52.216;6.874;2023-03-13T15:34:59;98861.00;;;15.62;100.00
51229;BME280;37304;52.216;6.874;2023-03-13T15:40:00;98846.09;;;15.50;100.00
51229;BME280;37304;52.216;6.874;2023-03-13T15:45:07;98837.88;;;15.43;100.00
51229;BME280;37304;52.216;6.874;2023-03-13T15:50:25;98815.25;;;15.29;100.00
51229;BME280;37304;52.216;6.874;2023-03-13T15:55:29;98828.75;;;15.23;100.00
51229;BME280;37304;52.216;6.874;2023-03-13T16:00:30;98811.16;;;15.25;100.00
51229;BME280;37304;52.216;6.874;2023-03-13T16:05:30;98807.31;;;15.18;100.00
51229;BME280;37304;52.216;6.874;2023-03-13T16:10:31;98805.63;;;15.04;100.00
51229;BME280;37304;52.216;6.874;2023-03-13T16:15:32;98795.28;;;15.02;100.00
51229;BME280;37304;52.216;6.874;2023-03-13T16:20:33;98804.16;;;14.99;100.00
51229;BME280;37304;52.216;6.874;2023-03-13T16:25:33;98793.28;;;14.93;100.00
51229;BME280;37304;52.216;6.874;2023-03-13T16:30:35;98786.38;;;14.79;100.00
51229;BME280;37304;52.216;6.874;2023-03-13T16:35:35;98777.22;;;14.59;100.00
51229;BME280;37304;52.216;6.874;2023-03-13T16:40:35;98769.34;;;14.46;100.00
51229;BME280;37304;52.216;6.874;2023-03-13T16:45:36;98753.66;;;14.46;100.00
51229;BME280;37304;52.216;6.874;2023-03-13T16:50:37;98755.91;;;14.24;100.00
51229;BME280;37304;52.216;6.874;2023-03-13T16:55:37;98748.59;;;14.17;100.00
51229;BME280;37304;52.216;6.874;2023-03-13T17:00:38;98764.13;;;14.05;100.00
51229;BME280;37304;52.216;6.874;2023-03-13T17:05:38;98764.34;;;14.02;100.00
51229;BME280;37304;52.216;6.874;2023-03-13T17:10:38;98762.88;;;13.83;100.00
51229;BME280;37304;52.216;6.874;2023-03-13T17:15:39;98768.28;;;13.80;100.00
51229;BME280;37304;52.216;6.874;2023-03-13T17:20:39;98759.38;;;13.70;100.00
51229;BME280;37304;52.216;6.874;2023-03-13T17:25:40;98764.34;;;13.46;100.00
51229;BME280;37304;52.216;6.874;2023-03-13T17:30:40;98773.41;;;13.54;100.00
51229;BME280;37304;52.216;6.874;2023-03-13T17:35:40;98780.94;;;13.45;100.00
51229;BME280;37304;52.216;6.874;2023-03-13T17:40:41;98772.16;;;13.31;100.00
51229;BME280;37304;52.216;6.874;2023-03-13T17:45:41;98778.69;;;13.38;100.00
51229;BME280;37304;52.216;6.874;2023-03-13T17:50:41;98778.25;;;13.32;100.00
51229;BME280;37304;52.216;6.874;2023-03-13T17:55:42;98771.13;;;13.19;100.00
51229;BME280;37304;52.216;6.874;2023-03-13T18:00:42;98782.88;;;13.12;100.00
51229;BME280;37304;52.216;6.874;2023-03-13T18:05:45;98775.81;;;13.14;100.00
51229;BME280;37304;52.216;6.874;2023-03-13T18:10:46;98759.88;;;13.04;100.00
51229;BME280;37304;52.216;6.874;2023-03-13T18:15:46;98771.88;;;12.92;100.00
51229;BME280;37304;52.216;6.874;2023-03-13T18:20:46;98768.22;;;12.80;100.00
51229;BME280;37304;52.216;6.874;2023-03-13T18:25:47;98771.94;;;12.76;100.00
51229;BME280;37304;52.216;6.874;2023-03-13T18:30:47;98766.53;;;12.65;100.00
51229;BME280;37304;52.216;6.874;2023-03-13T18:35:47;98764.28;;;12.59;100.00
51229;BME280;37304;52.216;6.874;2023-03-13T18:40:48;98766.22;;;12.55;100.00
51229;BME280;37304;52.216;6.874;2023-03-13T18:45:48;98766.88;;;12.44;100.00
51229;BME280;37304;52.216;6.874;2023-03-13T18:50:48;98759.84;;;12.30;100.00
51229;BME280;37304;52.216;6.874;2023-03-13T18:55:49;98742.97;;;12.21;100.00
51229;BME280;37304;52.216;6.874;2023-03-13T19:00:49;98749.97;;;12.05;100.00
51229;BME280;37304;52.216;6.874;2023-03-13T19:05:51;98748.97;;;11.91;100.00
51229;BME280;37304;52.216;6.874;2023-03-13T19:10:51;98759.72;;;11.85;100.00
51229;BME280;37304;52.216;6.874;2023-03-13T19:15:52;98761.41;;;11.70;100.00
51229;BME280;37304;52.216;6.874;2023-03-13T19:20:52;98748.06;;;11.44;100.00
51229;BME280;37304;52.216;6.874;2023-03-13T19:25:55;98731.34;;;11.32;100.00
51229;BME280;37304;52.216;6.874;2023-03-13T19:30:56;98727.72;;;11.19;100.00
51229;BME280;37304;52.216;6.874;2023-03-13T19:35:56;98735.09;;;11.11;100.00
51229;BME280;37304;52.216;6.874;2023-03-13T19:40:56;98740.38;;;11.09;100.00
51229;BME280;37304;52.216;6.874;2023-03-13T19:45:57;98731.47;;;10.97;100.00
51229;BME280;37304;52.216;6.874;2023-03-13T19:50:57;98709.22;;;10.91;100.00
51229;BME280;37304;52.216;6.874;2023-03-13T19:55:57;98706.88;;;10.87;100.00
51229;BME280;37304;52.216;6.874;2023-03-13T20:00:58;98709.22;;;10.91;100.00
51229;BME280;37304;52.216;6.874;2023-03-13T20:05:58;98710.16;;;10.90;100.00
51229;BME280;37304;52.216;6.874;2023-03-13T20:10:58;98706.53;;;10.93;100.00
51229;BME280;37304;52.216;6.874;2023-03-13T20:15:59;98690.84;;;10.78;100.00
51229;BME280;37304;52.216;6.874;2023-03-13T20:20:59;98696.78;;;10.81;100.00
51229;BME280;37304;52.216;6.874;2023-03-13T20:26:04;98697.28;;;10.71;100.00
51229;BME280;37304;52.216;6.874;2023-03-13T20:31:11;98696.25;;;10.58;100.00
51229;BME280;37304;52.216;6.874;2023-03-13T20:36:13;98703.03;;;10.60;100.00
51229;BME280;37304;52.216;6.874;2023-03-13T20:41:14;98714.97;;;10.65;100.00
51229;BME280;37304;52.216;6.874;2023-03-13T20:46:20;98706.91;;;10.69;100.00
51229;BME280;37304;52.216;6.874;2023-03-13T20:51:23;98699.53;;;10.61;100.00
51229;BME280;37304;52.216;6.874;2023-03-13T20:56:24;98720.38;;;10.60;100.00
51229;BME280;37304;52.216;6.874;2023-03-13T21:01:24;98717.66;;;10.45;100.00
51229;BME280;37304;52.216;6.874;2023-03-13T21:06:25;98703.44;;;10.53;100.00
51229;BME280;37304;52.216;6.874;2023-03-13T21:11:26;98685.25;;;10.53;100.00
51229;BME280;37304;52.216;6.874;2023-03-13T21:16:26;98690.59;;;10.49;100.00
51229;BME280;37304;52.216;6.874;2023-03-13T21:21:27;98689.22;;;10.42;100.00
51229;BME280;37304;52.216;6.874;2023-03-13T21:26:28;98689.06;;;10.45;100.00
51229;BME280;37304;52.216;6.874;2023-03-13T21:31:29;98702.56;;;10.52;100.00
51229;BME280;37304;52.216;6.874;2023-03-13T21:36:29;98685.00;;;10.57;100.00
51229;BME280;37304;52.216;6.874;2023-03-13T21:41:30;98688.56;;;10.72;100.00
51229;BME280;37304;52.216;6.874;2023-03-13T21:46:34;98687.41;;;10.78;100.00
51229;BME280;37304;52.216;6.874;2023-03-13T21:51:34;98693.28;;;10.82;100.00
51229;BME280;37304;52.216;6.874;2023-03-13T21:56:34;98688.19;;;10.80;100.00
51229;BME280;37304;52.216;6.874;2023-03-13T22:01:35;98693.28;;;10.82;100.00
51229;BME280;37304;52.216;6.874;2023-03-13T22:06:35;98679.69;;;10.76;100.00
51229;BME280;37304;52.216;6.874;2023-03-13T22:11:35;98655.81;;;10.70;100.00
51229;BME280;37304;52.216;6.874;2023-03-13T22:16:36;98638.78;;;10.64;100.00
51229;BME280;37304;52.216;6.874;2023-03-13T22:21:36;98610.25;;;10.46;100.00
51229;BME280;37304;52.216;6.874;2023-03-13T22:26:37;98602.22;;;10.33;100.00
51229;BME280;37304;52.216;6.874;2023-03-13T22:31:37;98594.91;;;10.24;100.00
51229;BME280;37304;52.216;6.874;2023-03-13T22:36:38;98611.03;;;10.13;100.00
51229;BME280;37304;52.216;6.874;2023-03-13T22:41:38;98634.53;;;10.10;100.00
51229;BME280;37304;52.216;6.874;2023-03-13T22:46:39;98614.84;;;10.06;100.00
51229;BME280;37304;52.216;6.874;2023-03-13T22:51:39;98613.13;;;10.07;100.00
51229;BME280;37304;52.216;6.874;2023-03-13T22:56:39;98616.31;;;10.12;100.00
51229;BME280;37304;52.216;6.874;2023-03-13T23:01:40;98597.91;;;10.16;100.00
51229;BME280;37304;52.216;6.874;2023-03-13T23:06:40;98604.53;;;10.22;100.00
51229;BME280;37304;52.216;6.874;2023-03-13T23:11:40;98605.13;;;10.27;100.00
51229;BME280;37304;52.216;6.874;2023-03-13T23:16:41;98604.22;;;10.28;100.00
51229;BME280;37304;52.216;6.874;2023-03-13T23:21:41;98606.75;;;10.30;100.00
51229;BME280;37304;52.216;6.874;2023-03-13T23:26:41;98591.09;;;10.31;100.00
51229;BME280;37304;52.216;6.874;2023-03-13T23:31:42;98596.69;;;10.41;100.00
51229;BME280;37304;52.216;6.874;2023-03-13T23:36:42;98587.72;;;10.47;100.00
51229;BME280;37304;52.216;6.874;2023-03-13T23:41:42;98589.22;;;10.51;100.00
51229;BME280;37304;52.216;6.874;2023-03-13T23:46:43;98571.78;;;10.53;100.00
51229;BME280;37304;52.216;6.874;2023-03-13T23:51:43;98558.22;;;10.48;100.00
51229;BME280;37304;52.216;6.874;2023-03-13T23:56:44;98562.00;;;10.42;100.00
